Time;durP1;ratioP1;P1;durP2;ratioP2;P2;SDS_P1;SDS_P2;PMS_P1;PMS_P2;Temp;Humidity;BMP_temperature;BMP_pressure;BME280_temperature;BME280_humidity;BME280_pressure;Samples;Min_cycle;Max_cycle;Signal;HPM_P1;HPM_P2
2022/09/02 00:01:47;;;;;;;7.73;5.50;;;15.70;99.90;;;;;;5011424;28;20179;-67
2022/09/02 00:04:16;;;;;;;6.27;5.77;;;15.80;99.90;;;;;;5011914;28;20258;-66
2022/09/02 00:06:44;;;;;;;9.97;5.00;;;15.80;1.00;;;;;;5011694;28;20459;-66
2022/09/02 00:09:13;;;;;;;7.97;5.97;;;15.80;1.00;;;;;;5011773;28;20407;-67
2022/09/02 00:11:40;;;;;;;6.10;5.60;;;15.70;1.00;;;;;;5011744;28;20415;-67
2022/09/02 00:14:09;;;;;;;10.13;6.83;;;15.70;7.20;;;;;;5011886;28;20895;-67
2022/09/02 00:16:36;;;;;;;6.73;6.13;;;15.70;1.00;;;;;;5012057;28;20431;-67
2022/09/02 00:19:03;;;;;;;6.03;5.43;;;15.60;28.90;;;;;;5011738;28;20431;-67
2022/09/02 00:21:33;;;;;;;6.03;5.43;;;15.70;1.00;;;;;;5012143;28;20462;-67
2022/09/02 00:23:59;;;;;;;9.60;6.20;;;15.60;1.00;;;;;;5011972;28;20495;-67
2022/09/02 00:26:26;;;;;;;5.90;5.40;;;15.60;1.00;;;;;;5012075;28;20955;-67
2022/09/02 00:28:52;;;;;;;6.50;5.90;;;15.60;1.00;;;;;;5011611;28;20895;-67
2022/09/02 00:31:18;;;;;;;7.77;5.53;;;15.60;1.00;;;;;;5011398;28;20417;-67
2022/09/02 00:33:44;;;;;;;5.13;4.73;;;15.60;1.00;;;;;;5011929;28;20929;-67
2022/09/02 00:36:11;;;;;;;5.03;4.63;;;15.60;1.00;;;;;;5011655;28;20752;-67
2022/09/02 00:38:38;;;;;;;6.00;5.50;;;15.40;1.00;;;;;;5011680;28;20187;-67
2022/09/02 00:41:07;;;;;;;5.43;4.90;;;15.50;1.00;;;;;;5011696;28;20411;-67
2022/09/02 00:43:53;;;;;;;5.27;4.80;;;15.60;1.00;;;;;;5011818;28;20502;-67
2022/09/02 00:46:23;;;;;;;5.23;4.70;;;15.50;1.00;;;;;;5011770;28;20558;-67
2022/09/02 00:49:13;;;;;;;11.43;5.50;;;15.50;1.00;;;;;;5011659;28;20391;-67
2022/09/02 00:51:45;;;;;;;7.00;5.80;;;15.50;1.00;;;;;;5011646;28;20414;-67
2022/09/02 00:54:12;;;;;;;7.50;5.03;;;15.50;1.00;;;;;;5011657;28;20400;-67
2022/09/02 00:56:40;;;;;;;5.73;5.23;;;15.60;1.00;;;;;;5011548;28;20502;-67
2022/09/02 00:59:07;;;;;;;5.23;4.73;;;15.50;1.00;;;;;;5011140;28;20931;-67
2022/09/02 01:01:33;;;;;;;8.37;5.40;;;15.50;1.00;;;;;;5011343;28;20415;-67
2022/09/02 01:03:59;;;;;;;7.93;5.07;;;15.60;1.00;;;;;;5011292;28;20407;-67
2022/09/02 01:06:27;;;;;;;9.63;5.90;;;15.50;1.00;;;;;;5011193;28;20398;-67
2022/09/02 01:08:58;;;;;;;8.37;5.50;;;15.60;1.00;;;;;;5011381;28;20419;-67
2022/09/02 01:11:37;;;;;;;5.80;5.30;;;15.50;1.00;;;;;;5011067;28;20395;-67
2022/09/02 01:14:05;;;;;;;5.77;5.27;;;15.20;1.00;;;;;;5011458;28;20396;-67
2022/09/02 01:16:39;;;;;;;6.50;6.00;;;15.30;1.00;;;;;;5010900;28;20431;-67
2022/09/02 01:19:20;;;;;;;5.90;5.40;;;15.20;1.00;;;;;;5010815;28;20526;-67
2022/09/02 01:21:51;;;;;;;5.73;5.23;;;15.30;1.00;;;;;;5011374;28;20395;-67
2022/09/02 01:24:19;;;;;;;5.37;4.97;;;15.00;99.90;;;;;;5011526;28;20758;-67
2022/09/02 01:26:45;;;;;;;5.40;5.00;;;15.10;99.90;;;;;;5010797;28;20466;-67
2022/09/02 01:29:12;;;;;;;5.43;4.93;;;15.30;33.00;;;;;;5011086;28;20907;-67
2022/09/02 01:31:37;;;;;;;6.77;5.20;;;15.30;1.00;;;;;;5010804;28;20176;-67
2022/09/02 01:34:05;;;;;;;5.60;5.10;;;15.30;1.00;;;;;;5011108;28;20542;-67
2022/09/02 01:36:31;;;;;;;6.73;6.10;;;15.30;1.00;;;;;;5011251;28;20290;-68
2022/09/02 01:38:57;;;;;;;6.37;5.33;;;15.20;41.70;;;;;;5010736;28;20415;-67
2022/09/02 01:41:23;;;;;;;6.07;5.57;;;15.30;62.50;;;;;;5011259;28;20874;-67
2022/09/02 01:43:49;;;;;;;5.60;5.10;;;15.20;1.00;;;;;;5014618;28;20168;-67
2022/09/02 01:46:14;;;;;;;5.97;5.33;;;15.20;1.00;;;;;;5014066;28;20623;-67
2022/09/02 01:48:40;;;;;;;6.70;5.50;;;15.10;99.90;;;;;;5014450;28;20172;-67
2022/09/02 01:51:06;;;;;;;7.43;6.70;;;15.20;89.10;;;;;;5014518;28;20185;-68
2022/09/02 01:53:32;;;;;;;6.50;5.57;;;15.10;49.50;;;;;;5014601;28;20215;-67
2022/09/02 01:55:58;;;;;;;7.10;5.30;;;15.20;99.90;;;;;;5014771;28;20468;-67
2022/09/02 01:58:24;;;;;;;5.43;5.03;;;15.30;66.80;;;;;;5014181;28;20407;-67
2022/09/02 02:00:50;;;;;;;5.13;4.73;;;15.30;69.60;;;;;;5014480;28;20274;-67
2022/09/02 02:03:15;;;;;;;6.83;6.23;;;15.30;99.90;;;;;;5014332;28;20579;-67
2022/09/02 02:05:42;;;;;;;6.23;5.63;;;15.30;99.90;;;;;;5014260;28;20203;-67
2022/09/02 02:08:08;;;;;;;7.27;6.47;;;15.30;99.90;;;;;;5013872;28;20199;-68
2022/09/02 02:10:34;;;;;;;7.17;5.43;;;15.20;99.90;;;;;;5013958;28;20458;-67
2022/09/02 02:13:00;;;;;;;6.53;5.93;;;15.00;99.90;;;;;;5013947;28;20900;-67
2022/09/02 02:15:26;;;;;;;6.00;5.50;;;15.00;99.90;;;;;;5014034;28;20411;-67
2022/09/02 02:17:52;;;;;;;5.93;5.33;;;14.90;1.00;;;;;;5013917;28;20458;-68
2022/09/02 02:20:19;;;;;;;5.63;5.17;;;14.90;1.00;;;;;;5014288;28;20271;-67
2022/09/02 02:22:45;;;;;;;7.57;6.03;;;14.90;1.00;;;;;;5014096;28;20198;-67
2022/09/02 02:25:13;;;;;;;9.37;5.30;;;14.90;1.00;;;;;;5014163;28;20519;-68
2022/09/02 02:27:39;;;;;;;6.63;6.03;;;15.00;99.90;;;;;;5013503;28;20506;-67
2022/09/02 02:30:07;;;;;;;6.17;5.77;;;14.90;99.90;;;;;;5014116;28;20426;-68
2022/09/02 02:32:33;;;;;;;5.90;5.30;;;14.90;99.90;;;;;;5013868;28;20434;-69
2022/09/02 02:34:59;;;;;;;6.57;5.83;;;14.90;99.90;;;;;;5013916;28;20489;-68
2022/09/02 02:37:25;;;;;;;5.97;5.47;;;14.90;99.90;;;;;;5013241;28;20471;-68
2022/09/02 02:39:51;;;;;;;6.10;5.50;;;14.90;99.90;;;;;;5013388;28;20542;-68
2022/09/02 02:42:17;;;;;;;9.87;5.90;;;14.80;99.90;;;;;;5013396;28;20403;-68
2022/09/02 02:44:42;;;;;;;5.80;5.40;;;14.80;99.90;;;;;;5013437;28;20188;-68
2022/09/02 02:47:08;;;;;;;7.73;5.93;;;14.70;1.00;;;;;;5013772;28;20677;-68
2022/09/02 02:49:42;;;;;;;7.90;6.80;;;14.60;1.00;;;;;;5013017;28;20183;-68
2022/09/02 02:52:09;;;;;;;6.57;6.00;;;14.50;99.90;;;;;;5012907;28;20176;-68
2022/09/02 02:54:36;;;;;;;6.90;6.00;;;14.50;99.90;;;;;;5012482;28;20427;-68
2022/09/02 02:57:03;;;;;;;6.80;6.20;;;14.50;99.90;;;;;;5012665;28;20526;-68
2022/09/02 02:59:28;;;;;;;7.57;5.90;;;14.50;99.90;;;;;;5012892;28;20422;-68
2022/09/02 03:01:54;;;;;;;7.10;6.50;;;14.60;99.90;;;;;;5013238;28;20423;-68
2022/09/02 03:04:20;;;;;;;8.13;5.93;;;14.60;99.90;;;;;;5012911;28;20172;-68
2022/09/02 03:06:46;;;;;;;6.90;6.30;;;14.70;99.90;;;;;;5012878;28;20489;-68
2022/09/02 03:09:12;;;;;;;6.67;6.07;;;14.70;99.90;;;;;;5012245;28;20165;-68
2022/09/02 03:11:38;;;;;;;6.90;6.27;;;14.80;1.00;;;;;;5012594;28;20176;-68
2022/09/02 03:14:04;;;;;;;6.50;6.00;;;14.90;1.00;;;;;;5012830;28;20443;-68
2022/09/02 03:16:30;;;;;;;6.63;5.93;;;14.80;1.00;;;;;;5012535;28;20869;-68
2022/09/02 03:18:56;;;;;;;7.10;6.40;;;14.80;99.90;;;;;;5012493;28;20442;-68
2022/09/02 03:21:21;;;;;;;6.50;6.00;;;14.70;99.90;;;;;;5012651;28;20168;-68
2022/09/02 03:23:48;;;;;;;7.57;6.27;;;14.70;99.90;;;;;;5012668;28;20168;-68
2022/09/02 03:26:19;;;;;;;6.70;6.00;;;14.80;23.60;;;;;;5012285;28;20216;-68
2022/09/02 03:28:46;;;;;;;6.43;5.93;;;14.80;1.00;;;;;;5012219;28;20449;-68
2022/09/02 03:31:19;;;;;;;7.20;6.60;;;14.50;99.90;;;;;;5012579;28;20490;-68
2022/09/02 03:33:45;;;;;;;6.70;6.17;;;14.40;1.00;;;;;;5012276;28;20422;-68
2022/09/02 03:36:24;;;;;;;7.50;6.60;;;14.40;1.00;;;;;;5012365;28;20755;-68
2022/09/02 03:38:50;;;;;;;6.93;6.17;;;14.30;1.00;;;;;;5011878;28;20423;-68
2022/09/02 03:41:16;;;;;;;6.50;5.63;;;14.40;1.00;;;;;;5012248;28;20474;-68
2022/09/02 03:43:41;;;;;;;6.37;5.77;;;14.40;99.90;;;;;;5012274;28;20211;-68
2022/09/02 03:46:08;;;;;;;7.20;6.47;;;14.40;1.00;;;;;;5012260;28;20204;-68
2022/09/02 03:48:34;;;;;;;6.10;5.50;;;14.30;1.00;;;;;;5011830;28;20196;-68
2022/09/02 03:51:00;;;;;;;6.60;6.00;;;14.10;99.90;;;;;;5012189;28;20403;-68
2022/09/02 03:53:26;;;;;;;6.60;6.00;;;14.20;1.00;;;;;;5012098;28;20250;-68
2022/09/02 03:55:52;;;;;;;6.20;5.70;;;14.10;99.90;;;;;;5011967;28;20477;-68
2022/09/02 03:58:18;;;;;;;6.80;6.30;;;14.10;99.90;;;;;;5011772;28;20176;-68
2022/09/02 04:00:49;;;;;;;9.40;6.67;;;14.10;90.00;;;;;;5012135;28;20176;-67
2022/09/02 04:03:15;;;;;;;11.40;6.00;;;14.00;1.00;;;;;;5012043;28;20407;-67
2022/09/02 04:05:46;;;;;;;7.90;6.20;;;14.00;99.90;;;;;;5011669;28;20978;-66
2022/09/02 04:08:11;;;;;;;6.53;6.00;;;14.00;1.00;;;;;;5011430;28;20307;-67
2022/09/02 04:10:37;;;;;;;6.40;5.80;;;14.00;1.00;;;;;;5011820;28;20931;-67
2022/09/02 04:13:03;;;;;;;7.00;6.40;;;14.00;99.90;;;;;;5011845;28;20311;-67
2022/09/02 04:15:28;;;;;;;7.73;6.50;;;14.00;99.90;;;;;;5011676;28;20556;-68
2022/09/02 04:21:16;;;;;;;9.70;6.70;;;14.10;99.90;;;;;;5011507;28;20178;-67
2022/09/02 04:23:42;;;;;;;9.00;5.57;;;14.10;99.90;;;;;;5011471;28;20407;-67
2022/09/02 04:26:12;;;;;;;6.60;5.90;;;14.10;99.90;;;;;;5011408;28;20200;-67
2022/09/02 04:28:38;;;;;;;8.63;6.00;;;14.10;99.90;;;;;;5010947;28;20408;-67
2022/09/02 04:31:06;;;;;;;6.70;6.07;;;14.30;99.90;;;;;;5011334;28;20763;-69
2022/09/02 04:33:32;;;;;;;6.53;5.93;;;14.30;1.00;;;;;;5011362;28;20407;-67
2022/09/02 04:35:57;;;;;;;8.50;6.47;;;14.30;1.00;;;;;;5011125;28;20430;-67
2022/09/02 04:38:23;;;;;;;6.67;5.90;;;14.30;1.00;;;;;;5010876;28;20415;-67
2022/09/02 04:40:49;;;;;;;7.37;6.20;;;14.20;1.00;;;;;;5011237;28;20234;-67
2022/09/02 04:43:15;;;;;;;6.73;6.10;;;14.20;89.40;;;;;;5011193;28;20172;-67
2022/09/02 04:45:45;;;;;;;7.37;6.70;;;14.20;1.00;;;;;;5011152;28;20684;-67
2022/09/02 04:48:11;;;;;;;15.97;6.30;;;14.20;1.00;;;;;;5010679;28;20912;-67
2022/09/02 04:50:39;;;;;;;5.80;5.30;;;14.20;59.50;;;;;;5010979;28;20551;-68
2022/09/02 04:53:05;;;;;;;8.17;6.63;;;14.10;99.90;;;;;;5010961;28;20776;-67
2022/09/02 04:55:32;;;;;;;22.50;9.27;;;14.10;1.00;;;;;;5011088;28;20494;-67
2022/09/02 04:57:58;;;;;;;8.50;6.10;;;14.10;99.90;;;;;;5011096;28;20432;-68
2022/09/02 05:00:25;;;;;;;8.90;5.73;;;14.00;99.90;;;;;;5011022;28;20507;-67
2022/09/02 05:02:52;;;;;;;7.03;5.83;;;14.10;8.70;;;;;;5010949;28;20407;-67
2022/09/02 05:05:18;;;;;;;7.30;6.60;;;14.10;1.00;;;;;;5010859;28;20415;-67
2022/09/02 05:07:44;;;;;;;6.77;5.43;;;14.00;1.00;;;;;;5010551;28;20463;-68
2022/09/02 05:10:12;;;;;;;6.47;5.87;;;14.00;99.90;;;;;;5010804;28;20747;-68
2022/09/02 05:12:39;;;;;;;14.83;7.30;;;14.00;79.40;;;;;;5010948;28;20184;-68
2022/09/02 05:15:06;;;;;;;6.80;6.10;;;14.20;1.00;;;;;;5010921;28;20827;-68
2022/09/02 05:17:34;;;;;;;6.77;6.17;;;14.20;1.00;;;;;;5013776;28;20500;-68
2022/09/02 05:20:00;;;;;;;8.53;6.30;;;14.20;99.90;;;;;;5014806;28;20813;-68
2022/09/02 05:22:28;;;;;;;6.90;5.67;;;14.20;1.00;;;;;;5014705;28;20449;-67
2022/09/02 05:24:54;;;;;;;7.37;6.23;;;14.00;1.00;;;;;;5014900;28;20184;-67
2022/09/02 05:27:20;;;;;;;6.70;5.90;;;14.20;99.90;;;;;;5014455;28;20499;-68
2022/09/02 05:29:46;;;;;;;6.27;5.77;;;14.20;72.10;;;;;;5014060;28;20435;-67
2022/09/02 05:32:12;;;;;;;8.20;6.00;;;14.20;1.00;;;;;;5014893;28;20616;-67
2022/09/02 05:34:38;;;;;;;14.47;5.80;;;15.10;1.00;;;;;;5014448;28;20168;-68
2022/09/02 05:37:04;;;;;;;6.97;6.33;;;16.80;99.90;;;;;;5014397;28;20529;-67
2022/09/02 05:39:30;;;;;;;5.63;5.10;;;18.20;1.00;;;;;;5014241;28;20926;-68
2022/09/02 05:41:56;;;;;;;7.10;5.20;;;19.50;99.90;;;;;;5014747;28;20510;-67
2022/09/02 05:44:22;;;;;;;7.30;5.00;;;20.30;99.90;;;;;;5013065;28;20630;-68
2022/09/02 05:46:48;;;;;;;6.60;4.90;;;20.60;99.90;;;;;;5014188;28;20517;-68
2022/09/02 05:49:17;;;;;;;4.77;4.10;;;21.50;99.90;;;;;;5014244;28;20247;-68
2022/09/02 05:51:51;;;;;;;6.47;4.50;;;21.40;99.90;;;;;;5014322;28;20236;-68
2022/09/02 05:54:26;;;;;;;5.00;4.60;;;21.20;99.90;;;;;;5014053;28;20460;-68
2022/09/02 05:56:54;;;;;;;8.17;5.10;;;21.90;99.90;;;;;;5014103;28;20833;-68
2022/09/02 05:59:21;;;;;;;7.00;4.70;;;21.50;99.90;;;;;;5013797;28;20772;-68
2022/09/02 06:01:48;;;;;;;8.23;5.67;;;20.70;99.90;;;;;;5014067;28;20407;-67
2022/09/02 06:04:15;;;;;;;5.50;4.90;;;20.10;99.90;;;;;;5014027;28;20430;-67
2022/09/02 06:06:41;;;;;;;9.83;4.70;;;19.50;99.90;;;;;;5014053;28;21153;-69
2022/09/02 06:09:09;;;;;;;8.23;4.67;;;19.10;99.90;;;;;;5013589;28;20407;-68
2022/09/02 06:11:38;;;;;;;7.50;4.80;;;18.80;99.90;;;;;;5014156;28;20399;-69
2022/09/02 06:14:06;;;;;;;8.90;4.97;;;18.50;99.90;;;;;;5013815;28;20769;-69
2022/09/02 06:16:33;;;;;;;8.40;4.90;;;18.60;99.90;;;;;;5013805;28;20975;-68
2022/09/02 06:19:02;;;;;;;7.30;4.90;;;18.80;99.90;;;;;;5013166;28;20427;-68
2022/09/02 06:21:28;;;;;;;5.43;4.90;;;18.30;99.90;;;;;;5013488;28;20897;-68
2022/09/02 06:23:54;;;;;;;5.53;4.90;;;18.10;99.90;;;;;;5013792;28;20411;-68
2022/09/02 06:26:20;;;;;;;5.40;5.00;;;18.00;99.90;;;;;;5013657;28;20235;-68
2022/09/02 06:28:47;;;;;;;5.33;4.93;;;17.70;99.90;;;;;;5011531;28;20421;-68
2022/09/02 06:31:16;;;;;;;6.03;5.10;;;17.40;99.90;;;;;;5013640;28;20404;-69
2022/09/02 06:33:43;;;;;;;5.80;5.30;;;17.60;99.90;;;;;;5013487;28;20407;-68
2022/09/02 06:36:13;;;;;;;7.67;5.80;;;17.60;99.90;;;;;;5013422;28;20518;-68
2022/09/02 06:38:42;;;;;;;5.63;5.00;;;18.00;99.90;;;;;;5013162;28;20542;-68
2022/09/02 06:41:11;;;;;;;6.07;4.97;;;18.10;99.90;;;;;;5013549;28;20418;-68
2022/09/02 06:43:36;;;;;;;6.07;5.43;;;18.00;99.90;;;;;;5013431;28;20434;-68
2022/09/02 06:46:03;;;;;;;7.23;4.83;;;18.40;99.90;;;;;;5013260;28;21018;-69
2022/09/02 06:48:28;;;;;;;11.03;5.53;;;18.40;99.90;;;;;;5013022;28;20287;-68
2022/09/02 06:50:54;;;;;;;6.30;5.80;;;18.00;99.90;;;;;;5013147;28;20495;-68
2022/09/02 06:53:20;;;;;;;6.73;6.13;;;17.40;99.90;;;;;;5013472;28;20215;-68
2022/09/02 06:55:46;;;;;;;9.37;5.70;;;17.70;99.90;;;;;;5013279;28;20221;-68
2022/09/02 06:58:12;;;;;;;6.03;5.53;;;17.50;99.90;;;;;;5012762;28;20399;-68
2022/09/02 07:00:39;;;;;;;5.87;5.33;;;17.60;99.90;;;;;;5013056;28;20176;-68
2022/09/02 07:06:01;;;;;;;17.97;7.00;;;18.20;99.90;;;;;;5013252;28;20784;-69
2022/09/02 07:08:27;;;;;;;7.13;6.17;;;18.20;99.90;;;;;;5012915;28;20403;-68
2022/09/02 07:10:53;;;;;;;6.17;5.57;;;18.00;99.90;;;;;;5013015;28;20406;-68
2022/09/02 07:13:19;;;;;;;9.03;6.07;;;17.10;99.90;;;;;;5012844;28;20403;-69
2022/09/02 07:15:45;;;;;;;7.07;6.20;;;17.40;99.90;;;;;;5012880;28;20434;-68
2022/09/02 07:18:11;;;;;;;6.80;6.20;;;17.30;99.90;;;;;;5011224;28;20211;-68
2022/09/02 07:20:36;;;;;;;6.13;5.63;;;17.40;99.90;;;;;;5010223;28;20407;-68
2022/09/02 07:23:03;;;;;;;6.07;5.50;;;17.80;99.90;;;;;;5010908;28;20172;-68
2022/09/02 07:25:29;;;;;;;7.00;6.30;;;17.80;99.90;;;;;;5010277;28;20256;-68
2022/09/02 07:27:55;;;;;;;8.63;5.97;;;17.80;99.90;;;;;;5010176;28;21023;-67
2022/09/02 07:30:22;;;;;;;7.50;6.80;;;18.00;99.90;;;;;;5010960;28;20494;-67
2022/09/02 07:32:48;;;;;;;6.47;5.83;;;17.70;99.90;;;;;;5010870;28;20399;-67
2022/09/02 07:35:14;;;;;;;7.00;6.30;;;18.40;99.90;;;;;;5010642;28;20403;-67
2022/09/02 07:37:40;;;;;;;6.17;5.67;;;18.00;99.90;;;;;;5022294;28;20427;-68
2022/09/02 07:40:07;;;;;;;6.80;5.90;;;17.70;99.90;;;;;;5012979;28;20462;-68
2022/09/02 07:42:33;;;;;;;6.30;5.70;;;18.00;99.90;;;;;;5012654;28;20169;-68
2022/09/02 07:44:58;;;;;;;8.10;5.87;;;18.30;99.90;;;;;;5010729;28;20509;-68
2022/09/02 07:47:24;;;;;;;10.10;5.73;;;18.50;99.90;;;;;;5013006;28;20566;-69
2022/09/02 07:49:50;;;;;;;6.77;6.00;;;18.40;99.90;;;;;;5013449;28;20176;-69
2022/09/02 07:52:15;;;;;;;12.20;6.20;;;18.20;99.90;;;;;;5013949;28;20240;-69
2022/09/02 07:54:41;;;;;;;10.43;6.30;;;18.40;99.90;;;;;;5012207;28;20583;-68
2022/09/02 07:57:07;;;;;;;5.87;5.37;;;19.00;99.90;;;;;;5011724;28;20188;-68
2022/09/02 07:59:33;;;;;;;6.50;5.77;;;18.80;99.90;;;;;;5011761;28;20901;-68
2022/09/02 08:01:59;;;;;;;9.20;6.70;;;19.10;99.90;;;;;;5011970;28;20222;-68
2022/09/02 08:04:25;;;;;;;6.60;6.10;;;18.50;99.90;;;;;;5011926;28;20916;-68
2022/09/02 08:06:53;;;;;;;5.80;5.20;;;18.10;99.90;;;;;;5011780;28;20598;-68
2022/09/02 08:09:19;;;;;;;9.80;4.90;;;18.40;99.90;;;;;;5011849;28;20168;-68
2022/09/02 08:11:48;;;;;;;6.30;5.07;;;19.00;99.90;;;;;;5011892;28;20489;-68
2022/09/02 08:14:22;;;;;;;9.83;6.93;;;18.50;99.90;;;;;;5011762;28;20758;-69
2022/09/02 08:16:48;;;;;;;6.53;5.27;;;18.80;99.90;;;;;;5011714;28;20473;-69
2022/09/02 08:19:14;;;;;;;6.30;5.50;;;18.50;99.90;;;;;;5011520;28;20501;-69
2022/09/02 08:21:40;;;;;;;6.30;5.27;;;18.70;99.90;;;;;;5011407;28;20194;-69
2022/09/02 08:24:06;;;;;;;5.73;5.23;;;18.70;99.90;;;;;;5011677;28;20172;-69
2022/09/02 08:26:35;;;;;;;6.40;5.80;;;19.00;99.90;;;;;;5011369;28;20207;-68
2022/09/02 08:29:02;;;;;;;5.43;4.93;;;19.10;99.90;;;;;;5010870;28;20471;-69
2022/09/02 08:31:28;;;;;;;5.40;4.90;;;19.00;99.90;;;;;;5012212;28;20505;-68
2022/09/02 08:33:54;;;;;;;6.10;5.50;;;19.00;99.90;;;;;;5011263;28;20423;-68
2022/09/02 08:36:19;;;;;;;6.77;4.77;;;19.20;99.90;;;;;;5011043;28;20200;-68
2022/09/02 08:38:46;;;;;;;5.30;4.27;;;19.20;99.90;;;;;;5010756;28;20180;-68
2022/09/02 08:41:16;;;;;;;4.77;4.43;;;19.20;99.90;;;;;;5011264;28;20204;-68
2022/09/02 08:43:43;;;;;;;5.10;4.17;;;19.00;99.90;;;;;;5011310;28;20418;-69
2022/09/02 08:46:15;;;;;;;7.10;5.07;;;19.20;99.90;;;;;;5011158;28;20476;-68
2022/09/02 08:48:53;;;;;;;6.90;4.97;;;19.50;99.90;;;;;;5010812;28;20415;-68
2022/09/02 08:51:30;;;;;;;6.57;5.03;;;19.60;99.90;;;;;;5010901;28;20414;-67
2022/09/02 08:54:07;;;;;;;5.70;4.90;;;19.20;99.90;;;;;;5009976;28;21112;-67
2022/09/02 08:56:33;;;;;;;6.90;4.60;;;19.30;99.90;;;;;;5008891;28;20430;-67
2022/09/02 08:59:02;;;;;;;5.07;4.57;;;19.40;99.90;;;;;;5008155;28;20465;-68
2022/09/02 09:02:08;;;;;;;5.00;4.50;;;19.00;99.90;;;;;;5008836;28;20164;-67
2022/09/02 09:04:39;;;;;;;10.83;4.33;;;19.40;99.90;;;;;;5008897;28;20418;-68
2022/09/02 09:07:20;;;;;;;9.60;4.63;;;19.50;99.90;;;;;;5009312;28;20565;-68
2022/09/02 09:09:59;;;;;;;5.43;4.07;;;19.70;99.90;;;;;;5009609;28;20407;-67
2022/09/02 09:12:49;;;;;;;4.27;3.97;;;19.50;99.90;;;;;;5009729;28;20505;-68
2022/09/02 09:15:34;;;;;;;5.47;4.50;;;19.40;99.90;;;;;;5009432;28;20826;-66
2022/09/02 09:18:04;;;;;;;4.60;4.20;;;19.50;99.90;;;;;;5001665;28;20442;-66
2022/09/02 09:20:38;;;;;;;8.70;4.40;;;19.60;99.90;;;;;;5009250;28;20407;-66
2022/09/02 09:23:39;;;;;;;4.97;4.57;;;19.80;99.90;;;;;;5009558;28;20399;-67
2022/09/02 09:26:08;;;;;;;4.73;3.93;;;19.70;99.90;;;;;;5008819;28;21070;-66
2022/09/02 09:28:40;;;;;;;7.80;4.10;;;19.90;99.90;;;;;;5008621;28;20823;-68
2022/09/02 09:31:10;;;;;;;4.53;4.03;;;19.60;99.90;;;;;;5008579;28;20488;-67
2022/09/02 09:33:36;;;;;;;5.07;4.17;;;19.80;99.90;;;;;;5008802;28;20429;-67
2022/09/02 09:36:04;;;;;;;4.83;3.10;;;19.80;99.90;;;;;;5009162;28;20944;-67
2022/09/02 09:38:33;;;;;;;9.10;4.23;;;19.80;99.90;;;;;;5008761;28;20614;-68
2022/09/02 09:41:27;;;;;;;7.27;4.23;;;20.10;99.90;;;;;;5009007;28;20419;-66
2022/09/02 09:43:53;;;;;;;7.10;3.73;;;19.90;99.90;;;;;;5008163;28;20434;-67
2022/09/02 09:46:29;;;;;;;4.00;3.50;;;20.30;99.90;;;;;;5009123;28;20463;-67
2022/09/02 09:48:55;;;;;;;6.57;3.20;;;20.40;99.90;;;;;;5008433;28;20172;-68
2022/09/02 09:51:21;;;;;;;3.90;3.17;;;20.40;99.90;;;;;;5008721;28;20418;-67
2022/09/02 09:53:46;;;;;;;4.50;2.80;;;20.30;99.90;;;;;;5008966;28;20411;-67
2022/09/02 09:56:12;;;;;;;3.30;3.00;;;20.40;99.90;;;;;;5008977;28;20542;-67
2022/09/02 09:58:38;;;;;;;7.60;3.53;;;20.60;99.90;;;;;;5008450;28;20226;-67
2022/09/02 10:01:31;;;;;;;4.47;3.23;;;20.70;99.90;;;;;;5008620;28;20495;-67
2022/09/02 10:04:06;;;;;;;3.80;3.40;;;20.60;99.90;;;;;;5010745;28;20193;-67
2022/09/02 10:06:32;;;;;;;3.77;3.47;;;20.60;99.90;;;;;;5012137;28;20468;-67
2022/09/02 10:08:59;;;;;;;4.30;3.60;;;20.60;99.90;;;;;;5011750;28;20415;-67
2022/09/02 10:11:28;;;;;;;6.73;3.97;;;20.60;99.90;;;;;;5012367;28;20271;-67
2022/09/02 10:14:06;;;;;;;4.10;3.70;;;20.50;99.90;;;;;;5011689;28;20442;-67
2022/09/02 10:16:43;;;;;;;3.80;3.40;;;20.80;99.90;;;;;;5011792;28;20419;-69
2022/09/02 10:19:18;;;;;;;4.77;3.27;;;20.50;99.90;;;;;;5012171;28;20517;-67
2022/09/02 10:21:52;;;;;;;5.80;2.93;;;20.60;99.90;;;;;;5011986;28;20770;-67
2022/09/02 10:24:50;;;;;;;5.90;2.17;;;20.40;99.90;;;;;;5011772;28;20490;-67
2022/09/02 10:27:23;;;;;;;3.30;3.00;;;20.70;99.90;;;;;;5011643;28;20494;-68
2022/09/02 10:30:10;;;;;;;7.83;3.10;;;20.90;99.90;;;;;;5011694;28;20443;-67
2022/09/02 10:32:55;;;;;;;6.33;3.13;;;20.90;99.90;;;;;;5011682;28;20403;-68
2022/09/02 10:35:24;;;;;;;3.00;2.70;;;21.30;99.90;;;;;;5011604;28;20463;-68
2022/09/02 10:38:08;;;;;;;5.10;2.80;;;21.30;99.90;;;;;;5010470;28;20421;-67
2022/09/02 10:40:40;;;;;;;6.67;2.67;;;21.20;99.90;;;;;;5011854;28;20431;-68
2022/09/02 10:43:09;;;;;;;7.43;3.10;;;20.90;99.90;;;;;;5011664;28;20410;-68
2022/09/02 10:45:45;;;;;;;12.40;3.07;;;20.80;99.90;;;;;;5012751;28;20418;-68
2022/09/02 10:48:11;;;;;;;2.60;2.40;;;20.80;99.90;;;;;;5013551;28;20494;-67
2022/09/02 10:50:55;;;;;;;3.00;2.33;;;20.70;99.90;;;;;;5013895;28;20919;-67
2022/09/02 10:53:43;;;;;;;4.23;2.63;;;21.00;99.90;;;;;;5013739;28;20762;-67
2022/09/02 10:56:09;;;;;;;4.93;2.87;;;21.20;99.90;;;;;;5013426;28;20427;-68
2022/09/02 10:59:04;;;;;;;2.67;2.20;;;21.30;99.90;;;;;;5013107;28;20395;-68
2022/09/02 11:01:33;;;;;;;6.17;2.37;;;21.20;99.90;;;;;;5013561;28;20870;-68
2022/09/02 11:04:32;;;;;;;6.20;2.57;;;21.20;99.90;;;;;;5013417;28;20403;-68
2022/09/02 11:06:59;;;;;;;4.60;2.10;;;21.40;99.90;;;;;;5013022;28;20530;-68
2022/09/02 11:09:31;;;;;;;4.40;2.37;;;21.40;99.90;;;;;;5013279;28;20924;-68
2022/09/02 11:12:08;;;;;;;4.00;2.57;;;21.40;99.90;;;;;;5013399;28;20392;-68
2022/09/02 11:14:55;;;;;;;3.30;2.90;;;21.20;99.90;;;;;;5012303;28;20399;-68
2022/09/02 11:17:30;;;;;;;10.53;2.80;;;21.10;99.90;;;;;;5013008;28;20485;-67
2022/09/02 11:20:02;;;;;;;7.93;2.50;;;21.30;99.90;;;;;;5012670;28;20407;-68
2022/09/02 11:22:58;;;;;;;4.23;2.83;;;21.40;99.90;;;;;;5012926;28;20418;-67
2022/09/02 11:25:28;;;;;;;7.00;2.60;;;21.70;99.90;;;;;;5013235;28;20394;-68
2022/09/02 11:28:11;;;;;;;2.37;2.17;;;21.30;99.90;;;;;;5013357;28;20462;-68
2022/09/02 11:31:09;;;;;;;8.50;2.67;;;21.20;99.90;;;;;;5013047;28;20438;-67
2022/09/02 11:33:45;;;;;;;2.80;2.60;;;21.20;99.90;;;;;;5012454;28;20407;-68
2022/09/02 11:36:11;;;;;;;4.60;2.03;;;21.50;99.90;;;;;;5012459;28;20790;-68
2022/09/02 11:38:56;;;;;;;1.83;1.70;;;21.50;99.90;;;;;;5012309;28;20411;-68
2022/09/02 11:41:43;;;;;;;3.00;2.73;;;21.50;99.90;;;;;;5012278;28;20407;-68
2022/09/02 11:44:13;;;;;;;2.50;2.20;;;21.60;99.90;;;;;;5012084;28;20403;-67
2022/09/02 11:47:01;;;;;;;14.37;5.27;;;21.40;99.90;;;;;;5007818;28;20523;-68
2022/09/02 11:49:45;;;;;;;5.97;2.57;;;21.50;99.90;;;;;;5009730;28;20419;-68
2022/09/02 11:52:47;;;;;;;3.13;2.23;;;21.50;99.90;;;;;;5012013;28;20461;-68
2022/09/02 11:55:38;;;;;;;3.07;2.20;;;21.70;99.90;;;;;;4970336;28;20404;-66
2022/09/02 11:58:04;;;;;;;2.50;2.30;;;21.50;99.90;;;;;;5002792;28;20411;-67
2022/09/02 12:00:55;;;;;;;17.07;3.90;;;21.50;99.90;;;;;;5012927;28;20395;-66
2022/09/02 12:03:24;;;;;;;5.10;3.00;;;21.70;99.90;;;;;;5012348;28;20778;-67
2022/09/02 12:06:04;;;;;;;8.30;2.80;;;21.90;99.90;;;;;;5012254;28;20428;-68
2022/09/02 12:08:35;;;;;;;6.27;2.77;;;21.90;99.90;;;;;;5012650;28;20395;-67
2022/09/02 12:11:05;;;;;;;3.17;2.60;;;21.70;99.90;;;;;;5012326;28;20391;-67
2022/09/02 12:13:31;;;;;;;4.30;2.33;;;21.60;99.90;;;;;;5012066;28;20422;-67
2022/09/02 12:16:14;;;;;;;3.63;2.23;;;21.60;99.90;;;;;;5012226;28;20423;-67
2022/09/02 12:18:43;;;;;;;2.23;1.83;;;21.80;99.90;;;;;;5012033;28;20640;-67
2022/09/02 12:21:14;;;;;;;3.50;2.60;;;21.80;99.90;;;;;;5012423;28;20411;-66
2022/09/02 12:23:55;;;;;;;3.83;2.40;;;21.90;99.90;;;;;;5012215;28;20387;-67
2022/09/02 12:26:39;;;;;;;7.10;3.43;;;21.90;99.90;;;;;;5012203;28;20481;-67
2022/09/02 12:29:18;;;;;;;3.10;2.63;;;22.00;99.90;;;;;;5011993;28;20411;-67
2022/09/02 12:31:46;;;;;;;3.83;2.63;;;21.70;99.90;;;;;;5012463;28;20387;-66
2022/09/02 12:34:32;;;;;;;5.00;2.80;;;21.80;99.90;;;;;;5012296;28;20399;-66
2022/09/02 12:36:59;;;;;;;11.40;3.10;;;22.00;99.90;;;;;;5004799;28;21032;-66
2022/09/02 12:41:59;;;;;;;5.60;2.70;;;22.00;99.90;;;;;;5012383;28;20407;-67
2022/09/02 12:44:43;;;;;;;4.40;2.40;;;21.90;99.90;;;;;;5012006;28;20652;-67
2022/09/02 12:47:31;;;;;;;4.53;2.30;;;22.00;99.90;;;;;;5011714;28;20890;-67
2022/09/02 12:50:16;;;;;;;2.77;2.43;;;21.90;99.90;;;;;;5015582;28;20395;-67
2022/09/02 12:52:50;;;;;;;8.90;2.10;;;21.90;99.90;;;;;;5019432;28;20489;-68
2022/09/02 12:55:21;;;;;;;3.63;2.60;;;22.00;99.90;;;;;;5018073;28;20407;-67
2022/09/02 12:57:52;;;;;;;5.20;2.20;;;21.90;99.90;;;;;;5013711;28;20388;-67
2022/09/02 13:00:51;;;;;;;3.50;2.27;;;22.00;99.90;;;;;;5011837;28;20906;-68
2022/09/02 13:03:44;;;;;;;3.30;2.03;;;22.20;99.90;;;;;;5008124;28;20419;-67
2022/09/02 13:06:29;;;;;;;3.07;2.27;;;22.20;99.90;;;;;;5011817;28;20419;-67
2022/09/02 13:09:00;;;;;;;5.40;2.13;;;22.30;99.90;;;;;;5011631;28;20387;-67
2022/09/02 13:11:26;;;;;;;4.37;2.57;;;22.40;99.90;;;;;;5011229;28;20739;-67
2022/09/02 13:14:10;;;;;;;2.40;1.97;;;22.40;99.90;;;;;;5011462;28;20410;-67